sensor_id;sensor_type;location;lat;lon;timestamp;pressure;altitude;pressure_sealevel;temperature;humidity
5879;BME280;2965;42.640;23.370;2023-03-04T05:03:34;94360.59;;;4.39;100.00
5879;BME280;2965;42.640;23.370;2023-03-04T05:06:01;94358.03;;;4.47;100.00
5879;BME280;2965;42.640;23.370;2023-03-04T05:08:28;94347.75;;;4.55;100.00
5879;BME280;2965;42.640;23.370;2023-03-04T05:10:53;94355.00;;;4.69;100.00
5879;BME280;2965;42.640;23.370;2023-03-04T05:13:18;94363.72;;;4.68;100.00
5879;BME280;2965;42.640;23.370;2023-03-04T05:15:50;94363.53;;;4.44;100.00
5879;BME280;2965;42.640;23.370;2023-03-04T05:18:16;94364.34;;;4.26;100.00
5879;BME280;2965;42.640;23.370;2023-03-04T05:20:41;94375.59;;;4.35;100.00
5879;BME280;2965;42.640;23.370;2023-03-04T05:23:07;94368.56;;;4.45;100.00
5879;BME280;2965;42.640;23.370;2023-03-04T05:25:32;94367.66;;;4.54;100.00
5879;BME280;2965;42.640;23.370;2023-03-04T05:27:57;94377.78;;;4.66;100.00
5879;BME280;2965;42.640;23.370;2023-03-04T05:30:23;94378.59;;;4.66;100.00
5879;BME280;2965;42.640;23.370;2023-03-04T05:32:48;94387.16;;;4.85;100.00
5879;BME280;2965;42.640;23.370;2023-03-04T05:35:13;94384.31;;;4.70;100.00
5879;BME280;2965;42.640;23.370;2023-03-04T05:37:39;94387.56;;;4.72;100.00
5879;BME280;2965;42.640;23.370;2023-03-04T05:40:05;94392.53;;;4.91;100.00
5879;BME280;2965;42.640;23.370;2023-03-04T05:42:30;94396.00;;;5.00;100.00
5879;BME280;2965;42.640;23.370;2023-03-04T05:44:56;94397.13;;;4.97;100.00
5879;BME280;2965;42.640;23.370;2023-03-04T05:47:21;94389.25;;;5.07;100.00
5879;BME280;2965;42.640;23.370;2023-03-04T05:49:46;94383.16;;;5.16;100.00
5879;BME280;2965;42.640;23.370;2023-03-04T05:52:12;94384.81;;;5.25;100.00
5879;BME280;2965;42.640;23.370;2023-03-04T05:54:37;94390.72;;;4.84;100.00
5879;BME280;2965;42.640;23.370;2023-03-04T05:57:02;94382.34;;;4.90;100.00
5879;BME280;2965;42.640;23.370;2023-03-04T05:59:28;94387.28;;;4.57;100.00
5879;BME280;2965;42.640;23.370;2023-03-04T06:01:53;94390.00;;;4.38;100.00
5879;BME280;2965;42.640;23.370;2023-03-04T06:04:19;94381.94;;;4.59;100.00
5879;BME280;2965;42.640;23.370;2023-03-04T06:06:44;94397.97;;;4.80;100.00
5879;BME280;2965;42.640;23.370;2023-03-04T06:09:11;94387.28;;;5.01;100.00
5879;BME280;2965;42.640;23.370;2023-03-04T06:11:37;94385.69;;;5.08;100.00
5879;BME280;2965;42.640;23.370;2023-03-04T06:14:02;94384.13;;;5.15;100.00
5879;BME280;2965;42.640;23.370;2023-03-04T06:16:27;94389.94;;;5.09;100.00
5879;BME280;2965;42.640;23.370;2023-03-04T06:18:53;94390.56;;;5.11;100.00
5879;BME280;2965;42.640;23.370;2023-03-04T06:21:18;94398.72;;;4.72;100.00
5879;BME280;2965;42.640;23.370;2023-03-04T06:23:44;94393.13;;;4.59;100.00
5879;BME280;2965;42.640;23.370;2023-03-04T06:26:09;94387.63;;;4.62;100.00
5879;BME280;2965;42.640;23.370;2023-03-04T06:28:42;94396.38;;;4.61;100.00
5879;BME280;2965;42.640;23.370;2023-03-04T06:31:08;94395.88;;;4.58;100.00
5879;BME280;2965;42.640;23.370;2023-03-04T06:33:33;94397.66;;;4.57;100.00
5879;BME280;2965;42.640;23.370;2023-03-04T06:35:59;94402.66;;;4.76;100.00
5879;BME280;2965;42.640;23.370;2023-03-04T06:38:25;94389.72;;;5.02;100.00
5879;BME280;2965;42.640;23.370;2023-03-04T06:40:51;94391.63;;;5.26;100.00
5879;BME280;2965;42.640;23.370;2023-03-04T06:43:17;94398.72;;;5.16;100.00
5879;BME280;2965;42.640;23.370;2023-03-04T06:45:42;94403.03;;;5.07;100.00
5879;BME280;2965;42.640;23.370;2023-03-04T06:48:08;94404.75;;;5.25;100.00
5879;BME280;2965;42.640;23.370;2023-03-04T06:50:33;94417.16;;;5.39;100.00
5879;BME280;2965;42.640;23.370;2023-03-04T06:52:58;94418.06;;;5.30;100.00
5879;BME280;2965;42.640;23.370;2023-03-04T06:55:24;94412.47;;;5.43;100.00
5879;BME280;2965;42.640;23.370;2023-03-04T06:57:49;94422.56;;;5.46;100.00
5879;BME280;2965;42.640;23.370;2023-03-04T07:00:15;94424.19;;;5.47;100.00
5879;BME280;2965;42.640;23.370;2023-03-04T07:02:41;94415.88;;;5.43;100.00
5879;BME280;2965;42.640;23.370;2023-03-04T07:05:08;94426.13;;;5.45;100.00
5879;BME280;2965;42.640;23.370;2023-03-04T07:07:34;94419.59;;;5.41;100.00
5879;BME280;2965;42.640;23.370;2023-03-04T07:09:59;94438.41;;;5.43;100.00
5879;BME280;2965;42.640;23.370;2023-03-04T07:12:25;94426.13;;;5.45;100.00
5879;BME280;2965;42.640;23.370;2023-03-04T07:14:50;94431.50;;;5.51;100.00
5879;BME280;2965;42.640;23.370;2023-03-04T07:17:16;94427.06;;;5.44;100.00
5879;BME280;2965;42.640;23.370;2023-03-04T07:19:41;94430.34;;;5.46;100.00
5879;BME280;2965;42.640;23.370;2023-03-04T07:22:06;94427.69;;;5.38;100.00
5879;BME280;2965;42.640;23.370;2023-03-04T07:24:32;94431.91;;;5.39;100.00
5879;BME280;2965;42.640;23.370;2023-03-04T07:26:57;94438.94;;;5.46;100.00
5879;BME280;2965;42.640;23.370;2023-03-04T07:29:22;94430.00;;;5.49;100.00
5879;BME280;2965;42.640;23.370;2023-03-04T07:31:48;94429.25;;;5.56;100.00
5879;BME280;2965;42.640;23.370;2023-03-04T07:34:14;94433.63;;;5.56;100.00
5879;BME280;2965;42.640;23.370;2023-03-04T07:36:40;94427.13;;;5.52;100.00
5879;BME280;2965;42.640;23.370;2023-03-04T07:39:06;94431.31;;;5.53;100.00
5879;BME280;2965;42.640;23.370;2023-03-04T07:41:32;94428.94;;;5.60;100.00
5879;BME280;2965;42.640;23.370;2023-03-04T07:44:01;94434.94;;;5.60;100.00
5879;BME280;2965;42.640;23.370;2023-03-04T07:46:26;94428.81;;;5.69;100.00
5879;BME280;2965;42.640;23.370;2023-03-04T07:48:53;94430.13;;;5.73;100.00
5879;BME280;2965;42.640;23.370;2023-03-04T07:51:20;94429.38;;;5.81;100.00
5879;BME280;2965;42.640;23.370;2023-03-04T07:53:49;94433.38;;;5.75;100.00
5879;BME280;2965;42.640;23.370;2023-03-04T07:56:21;94428.06;;;5.77;100.00
5879;BME280;2965;42.640;23.370;2023-03-04T07:58:46;94425.63;;;5.83;100.00
5879;BME280;2965;42.640;23.370;2023-03-04T08:01:17;94432.53;;;6.01;100.00
5879;BME280;2965;42.640;23.370;2023-03-04T08:03:43;94423.16;;;6.08;100.00
5879;BME280;2965;42.640;23.370;2023-03-04T08:06:11;94420.44;;;6.26;100.00
5879;BME280;2965;42.640;23.370;2023-03-04T08:08:37;94435.31;;;5.99;100.00
5879;BME280;2965;42.640;23.370;2023-03-04T08:11:07;94428.66;;;6.05;100.00
5879;BME280;2965;42.640;23.370;2023-03-04T08:13:33;94423.84;;;6.26;100.00
5879;BME280;2965;42.640;23.370;2023-03-04T08:15:59;94424.53;;;6.45;100.00
5879;BME280;2965;42.640;23.370;2023-03-04T08:18:24;94423.91;;;6.59;100.00
5879;BME280;2965;42.640;23.370;2023-03-04T08:20:50;94425.53;;;6.68;100.00
5879;BME280;2965;42.640;23.370;2023-03-04T08:23:16;94428.13;;;6.76;100.00
5879;BME280;2965;42.640;23.370;2023-03-04T08:25:42;94432.72;;;6.74;100.00
5879;BME280;2965;42.640;23.370;2023-03-04T08:28:08;94428.16;;;6.93;100.00
5879;BME280;2965;42.640;23.370;2023-03-04T08:30:33;94430.44;;;6.88;100.00
5879;BME280;2965;42.640;23.370;2023-03-04T08:33:01;94431.75;;;6.92;100.00
5879;BME280;2965;42.640;23.370;2023-03-04T08:35:27;94422.78;;;6.86;100.00
5879;BME280;2965;42.640;23.370;2023-03-04T08:37:52;94432.38;;;6.61;100.00
5879;BME280;2965;42.640;23.370;2023-03-04T08:40:18;94426.50;;;6.67;100.00
5879;BME280;2965;42.640;23.370;2023-03-04T08:42:43;94416.44;;;6.72;100.00
5879;BME280;2965;42.640;23.370;2023-03-04T08:45:09;94420.00;;;6.63;100.00
5879;BME280;2965;42.640;23.370;2023-03-04T08:47:35;94421.31;;;6.67;100.00
5879;BME280;2965;42.640;23.370;2023-03-04T08:50:00;94421.97;;;6.86;100.00
5879;BME280;2965;42.640;23.370;2023-03-04T08:52:28;94425.22;;;6.79;100.00
5879;BME280;2965;42.640;23.370;2023-03-04T08:54:54;94419.38;;;6.77;100.00
5879;BME280;2965;42.640;23.370;2023-03-04T08:57:19;94421.34;;;7.00;100.00
5879;BME280;2965;42.640;23.370;2023-03-04T08:59:44;94428.78;;;7.03;100.00
5879;BME280;2965;42.640;23.370;2023-03-04T09:02:10;94424.38;;;7.28;100.00
5879;BME280;2965;42.640;23.370;2023-03-04T09:04:35;94411.00;;;7.47;100.00
5879;BME280;2965;42.640;23.370;2023-03-04T09:07:01;94424.28;;;7.69;100.00
5879;BME280;2965;42.640;23.370;2023-03-04T09:09:26;94417.97;;;7.55;100.00
5879;BME280;2965;42.640;23.370;2023-03-04T09:11:51;94414.75;;;7.53;100.00
5879;BME280;2965;42.640;23.370;2023-03-04T09:14:17;94414.28;;;7.49;100.00
5879;BME280;2965;42.640;23.370;2023-03-04T09:16:42;94409.25;;;7.40;100.00
5879;BME280;2965;42.640;23.370;2023-03-04T09:19:08;94410.19;;;7.47;100.00
5879;BME280;2965;42.640;23.370;2023-03-04T09:21:33;94410.78;;;7.65;100.00
5879;BME280;2965;42.640;23.370;2023-03-04T09:23:58;94403.06;;;7.32;100.00
5879;BME280;2965;42.640;23.370;2023-03-04T09:26:26;94407.00;;;7.12;100.00
5879;BME280;2965;42.640;23.370;2023-03-04T09:28:55;94400.19;;;6.95;100.00
5879;BME280;2965;42.640;23.370;2023-03-04T09:31:21;94394.97;;;7.03;100.00
5879;BME280;2965;42.640;23.370;2023-03-04T09:33:47;94388.47;;;7.23;100.00
5879;BME280;2965;42.640;23.370;2023-03-04T09:36:13;94389.03;;;7.50;100.00
5879;BME280;2965;42.640;23.370;2023-03-04T09:38:40;94392.28;;;7.52;100.00
5879;BME280;2965;42.640;23.370;2023-03-04T09:41:14;94393.53;;;7.72;100.00
5879;BME280;2965;42.640;23.370;2023-03-04T09:43:40;94404.50;;;7.99;100.00
5879;BME280;2965;42.640;23.370;2023-03-04T09:46:11;94401.28;;;8.20;100.00
5879;BME280;2965;42.640;23.370;2023-03-04T09:48:47;94399.66;;;8.50;100.00
5879;BME280;2965;42.640;23.370;2023-03-04T09:51:38;94398.69;;;8.51;100.00
5879;BME280;2965;42.640;23.370;2023-03-04T09:54:08;94395.81;;;8.46;100.00
5879;BME280;2965;42.640;23.370;2023-03-04T09:56:39;94395.09;;;8.52;100.00
5879;BME280;2965;42.640;23.370;2023-03-04T09:59:29;94394.19;;;8.05;100.00
5879;BME280;2965;42.640;23.370;2023-03-04T10:02:06;94378.44;;;7.99;100.00
5879;BME280;2965;42.640;23.370;2023-03-04T10:04:41;94390.50;;;8.23;100.00
5879;BME280;2965;42.640;23.370;2023-03-04T10:07:18;94395.06;;;8.29;100.00
5879;BME280;2965;42.640;23.370;2023-03-04T10:09:50;94398.94;;;8.41;100.00
5879;BME280;2965;42.640;23.370;2023-03-04T10:12:21;94406.56;;;8.34;100.00
5879;BME280;2965;42.640;23.370;2023-03-04T10:14:51;94412.66;;;8.58;100.00
5879;BME280;2965;42.640;23.370;2023-03-04T10:17:23;94410.28;;;8.71;100.00
5879;BME280;2965;42.640;23.370;2023-03-04T10:20:00;94409.22;;;8.80;100.00
5879;BME280;2965;42.640;23.370;2023-03-04T10:24:55;94411.16;;;8.87;100.00
5879;BME280;2965;42.640;23.370;2023-03-04T10:27:20;94407.84;;;8.70;100.00
5879;BME280;2965;42.640;23.370;2023-03-04T10:29:48;94404.50;;;8.61;100.00
5879;BME280;2965;42.640;23.370;2023-03-04T10:32:15;94404.16;;;8.64;100.00
5879;BME280;2965;42.640;23.370;2023-03-04T10:34:41;94391.56;;;8.45;100.00
5879;BME280;2965;42.640;23.370;2023-03-04T10:37:07;94385.00;;;8.49;100.00
5879;BME280;2965;42.640;23.370;2023-03-04T10:39:37;94389.31;;;8.42;100.00
5879;BME280;2965;42.640;23.370;2023-03-04T10:42:24;94384.56;;;8.68;100.00
5879;BME280;2965;42.640;23.370;2023-03-04T10:44:57;94381.78;;;8.70;100.00
5879;BME280;2965;42.640;23.370;2023-03-04T10:47:25;94377.31;;;8.78;100.00
5879;BME280;2965;42.640;23.370;2023-03-04T10:49:54;94376.72;;;8.91;100.00
5879;BME280;2965;42.640;23.370;2023-03-04T10:52:45;94368.28;;;9.04;100.00
5879;BME280;2965;42.640;23.370;2023-03-04T10:55:18;94364.88;;;9.18;100.00
5879;BME280;2965;42.640;23.370;2023-03-04T10:57:47;94356.66;;;9.06;100.00
5879;BME280;2965;42.640;23.370;2023-03-04T11:02:43;94356.91;;;9.49;100.00
5879;BME280;2965;42.640;23.370;2023-03-04T11:07:54;94346.00;;;9.46;100.00
5879;BME280;2965;42.640;23.370;2023-03-04T11:10:28;94339.16;;;9.45;100.00
5879;BME280;2965;42.640;23.370;2023-03-04T11:12:59;94334.31;;;9.56;100.00
5879;BME280;2965;42.640;23.370;2023-03-04T11:15:28;94337.06;;;9.55;100.00
5879;BME280;2965;42.640;23.370;2023-03-04T11:17:58;94335.03;;;9.35;100.00
5879;BME280;2965;42.640;23.370;2023-03-04T11:20:36;94324.56;;;9.35;100.00
5879;BME280;2965;42.640;23.370;2023-03-04T11:23:16;94317.47;;;9.44;100.00
5879;BME280;2965;42.640;23.370;2023-03-04T11:25:47;94318.28;;;9.45;100.00
5879;BME280;2965;42.640;23.370;2023-03-04T11:28:20;94299.72;;;9.10;100.00
5879;BME280;2965;42.640;23.370;2023-03-04T11:34:06;94314.03;;;8.99;100.00
5879;BME280;2965;42.640;23.370;2023-03-04T11:41:54;94307.81;;;8.86;100.00
5879;BME280;2965;42.640;23.370;2023-03-04T11:44:22;94300.06;;;9.07;100.00
5879;BME280;2965;42.640;23.370;2023-03-04T11:58:13;94282.50;;;9.75;100.00
5879;BME280;2965;42.640;23.370;2023-03-04T12:01:07;94279.34;;;9.65;100.00
5879;BME280;2965;42.640;23.370;2023-03-04T12:06:12;94281.88;;;9.58;100.00
5879;BME280;2965;42.640;23.370;2023-03-04T12:14:19;94272.34;;;9.65;100.00
5879;BME280;2965;42.640;23.370;2023-03-04T12:17:41;94265.56;;;9.56;100.00
5879;BME280;2965;42.640;23.370;2023-03-04T12:22:44;94256.72;;;9.35;100.00
5879;BME280;2965;42.640;23.370;2023-03-04T12:27:48;94259.06;;;9.30;100.00
5879;BME280;2965;42.640;23.370;2023-03-04T12:39:12;94250.06;;;9.18;100.00
5879;BME280;2965;42.640;23.370;2023-03-04T12:47:46;94244.75;;;8.97;100.00
5879;BME280;2965;42.640;23.370;2023-03-04T12:55:44;94223.31;;;9.16;100.00
5879;BME280;2965;42.640;23.370;2023-03-04T12:58:20;94221.03;;;9.43;100.00
5879;BME280;2965;42.640;23.370;2023-03-04T13:00:54;94220.81;;;9.59;100.00
5879;BME280;2965;42.640;23.370;2023-03-04T13:03:55;94221.72;;;9.66;100.00
5879;BME280;2965;42.640;23.370;2023-03-04T13:06:29;94218.22;;;9.59;100.00
5879;BME280;2965;42.640;23.370;2023-03-04T13:14:01;94207.16;;;9.57;100.00
5879;BME280;2965;42.640;23.370;2023-03-04T13:16:40;94200.81;;;9.66;100.00
5879;BME280;2965;42.640;23.370;2023-03-04T13:24:55;94205.06;;;9.67;100.00
5879;BME280;2965;42.640;23.370;2023-03-04T13:28:04;94196.91;;;9.77;100.00
5879;BME280;2965;42.640;23.370;2023-03-04T13:35:56;94192.13;;;9.80;100.00
5879;BME280;2965;42.640;23.370;2023-03-04T13:41:22;94192.88;;;9.74;100.00
5879;BME280;2965;42.640;23.370;2023-03-04T13:43:53;94191.25;;;9.73;100.00
5879;BME280;2965;42.640;23.370;2023-03-04T13:51:24;94186.16;;;9.86;100.00
5879;BME280;2965;42.640;23.370;2023-03-04T13:56:44;94178.69;;;10.05;100.00
5879;BME280;2965;42.640;23.370;2023-03-04T14:02:19;94173.16;;;9.72;100.00
5879;BME280;2965;42.640;23.370;2023-03-04T14:04:57;94171.72;;;9.91;100.00
5879;BME280;2965;42.640;23.370;2023-03-04T14:07:34;94168.84;;;9.85;100.00
5879;BME280;2965;42.640;23.370;2023-03-04T14:12:34;94161.00;;;9.64;100.00
5879;BME280;2965;42.640;23.370;2023-03-04T14:17:38;94156.19;;;9.61;100.00
5879;BME280;2965;42.640;23.370;2023-03-04T14:20:22;94149.31;;;9.60;100.00
5879;BME280;2965;42.640;23.370;2023-03-04T14:22:48;94151.31;;;9.58;100.00
5879;BME280;2965;42.640;23.370;2023-03-04T14:27:39;94156.03;;;9.69;100.00
5879;BME280;2965;42.640;23.370;2023-03-04T14:30:07;94148.19;;;9.69;100.00
5879;BME280;2965;42.640;23.370;2023-03-04T14:32:43;94152.69;;;9.75;100.00
5879;BME280;2965;42.640;23.370;2023-03-04T14:35:19;94147.16;;;9.64;100.00
5879;BME280;2965;42.640;23.370;2023-03-04T14:40:23;94140.00;;;9.51;100.00
5879;BME280;2965;42.640;23.370;2023-03-04T14:42:55;94140.38;;;9.48;100.00
5879;BME280;2965;42.640;23.370;2023-03-04T14:45:22;94144.25;;;9.52;100.00
5879;BME280;2965;42.640;23.370;2023-03-04T14:47:47;94138.16;;;9.66;100.00
5879;BME280;2965;42.640;23.370;2023-03-04T14:50:16;94132.81;;;9.74;100.00
5879;BME280;2965;42.640;23.370;2023-03-04T14:52:44;94127.44;;;9.82;100.00
5879;BME280;2965;42.640;23.370;2023-03-04T14:57:40;94131.44;;;9.78;100.00
5879;BME280;2965;42.640;23.370;2023-03-04T15:02:44;94128.94;;;9.70;100.00
5879;BME280;2965;42.640;23.370;2023-03-04T15:05:33;94125.69;;;9.47;100.00
5879;BME280;2965;42.640;23.370;2023-03-04T15:08:04;94128.81;;;9.35;100.00
5879;BME280;2965;42.640;23.370;2023-03-04T15:10:35;94116.19;;;9.39;100.00
5879;BME280;2965;42.640;23.370;2023-03-04T15:13:04;94119.38;;;9.34;100.00
5879;BME280;2965;42.640;23.370;2023-03-04T15:15:42;94116.41;;;9.23;100.00
5879;BME280;2965;42.640;23.370;2023-03-04T15:18:22;94110.75;;;9.19;100.00
5879;BME280;2965;42.640;23.370;2023-03-04T15:20:59;94113.59;;;9.24;100.00
5879;BME280;2965;42.640;23.370;2023-03-04T15:23:26;94115.09;;;9.12;100.00
5879;BME280;2965;42.640;23.370;2023-03-04T15:25:54;94108.75;;;9.00;100.00
5879;BME280;2965;42.640;23.370;2023-03-04T15:28:22;94099.00;;;9.08;100.00
5879;BME280;2965;42.640;23.370;2023-03-04T15:30:48;94103.41;;;9.29;100.00
5879;BME280;2965;42.640;23.370;2023-03-04T15:33:14;94105.66;;;9.32;100.00
5879;BME280;2965;42.640;23.370;2023-03-04T15:35:43;94097.84;;;9.32;100.00
5879;BME280;2965;42.640;23.370;2023-03-04T15:38:12;94090.13;;;9.46;100.00
5879;BME280;2965;42.640;23.370;2023-03-04T15:40:41;94094.47;;;9.60;100.00
5879;BME280;2965;42.640;23.370;2023-03-04T15:43:10;94089.78;;;9.70;100.00
5879;BME280;2965;42.640;23.370;2023-03-04T15:45:37;94088.91;;;9.63;100.00
5879;BME280;2965;42.640;23.370;2023-03-04T15:48:04;94083.91;;;9.68;100.00
5879;BME280;2965;42.640;23.370;2023-03-04T15:50:33;94081.94;;;9.70;100.00
5879;BME280;2965;42.640;23.370;2023-03-04T15:53:00;94079.81;;;9.80;100.00
5879;BME280;2965;42.640;23.370;2023-03-04T15:55:27;94081.59;;;9.80;100.00
5879;BME280;2965;42.640;23.370;2023-03-04T15:57:55;94078.19;;;9.79;100.00
5879;BME280;2965;42.640;23.370;2023-03-04T16:00:22;94086.41;;;9.76;100.00
5879;BME280;2965;42.640;23.370;2023-03-04T16:02:47;94083.53;;;9.71;100.00
5879;BME280;2965;42.640;23.370;2023-03-04T16:05:13;94085.84;;;9.59;100.00
5879;BME280;2965;42.640;23.370;2023-03-04T16:07:41;94086.59;;;9.53;100.00
5879;BME280;2965;42.640;23.370;2023-03-04T16:12:45;94090.13;;;9.46;100.00
5879;BME280;2965;42.640;23.370;2023-03-04T16:15:17;94088.91;;;9.42;100.00
5879;BME280;2965;42.640;23.370;2023-03-04T16:17:43;94093.31;;;9.41;100.00
5879;BME280;2965;42.640;23.370;2023-03-04T16:20:14;94092.00;;;9.30;100.00
5879;BME280;2965;42.640;23.370;2023-03-04T16:22:41;94084.16;;;9.09;100.00
5879;BME280;2965;42.640;23.370;2023-03-04T16:25:10;94089.22;;;8.96;100.00
5879;BME280;2965;42.640;23.370;2023-03-04T16:27:36;94083.50;;;8.86;100.00
5879;BME280;2965;42.640;23.370;2023-03-04T16:30:01;94088.31;;;8.89;100.00
5879;BME280;2965;42.640;23.370;2023-03-04T16:32:27;94093.09;;;8.85;100.00
5879;BME280;2965;42.640;23.370;2023-03-04T16:34:52;94098.09;;;8.65;100.00
5879;BME280;2965;42.640;23.370;2023-03-04T16:37:19;94092.16;;;8.56;100.00
5879;BME280;2965;42.640;23.370;2023-03-04T16:39:45;94091.59;;;8.61;100.00
5879;BME280;2965;42.640;23.370;2023-03-04T16:42:19;94094.13;;;8.69;100.00
5879;BME280;2965;42.640;23.370;2023-03-04T16:44:47;94099.69;;;8.66;100.00
5879;BME280;2965;42.640;23.370;2023-03-04T16:47:12;94095.47;;;8.65;100.00
5879;BME280;2965;42.640;23.370;2023-03-04T16:49:38;94100.03;;;8.63;100.00
5879;BME280;2965;42.640;23.370;2023-03-04T16:52:05;94096.81;;;8.61;100.00
5879;BME280;2965;42.640;23.370;2023-03-04T16:54:33;94093.59;;;8.59;100.00
5879;BME280;2965;42.640;23.370;2023-03-04T16:57:00;94091.16;;;8.57;100.00
5879;BME280;2965;42.640;23.370;2023-03-04T16:59:26;94084.63;;;8.47;100.00
5879;BME280;2965;42.640;23.370;2023-03-04T17:01:53;94088.31;;;8.38;100.00
5879;BME280;2965;42.640;23.370;2023-03-04T17:04:20;94089.91;;;8.39;100.00
5879;BME280;2965;42.640;23.370;2023-03-04T17:06:45;94093.66;;;8.36;100.00
5879;BME280;2965;42.640;23.370;2023-03-04T17:09:10;94101.34;;;8.38;100.00
5879;BME280;2965;42.640;23.370;2023-03-04T17:11:36;94100.56;;;8.29;100.00
5879;BME280;2965;42.640;23.370;2023-03-04T17:14:03;94095.25;;;8.22;100.00
5879;BME280;2965;42.640;23.370;2023-03-04T17:16:28;94096.06;;;8.08;100.00
5879;BME280;2965;42.640;23.370;2023-03-04T17:18:54;94106.13;;;8.11;100.00
5879;BME280;2965;42.640;23.370;2023-03-04T17:21:22;94100.47;;;8.07;100.00
5879;BME280;2965;42.640;23.370;2023-03-04T17:23:48;94108.81;;;8.03;100.00
5879;BME280;2965;42.640;23.370;2023-03-04T17:26:14;94104.47;;;7.95;100.00
5879;BME280;2965;42.640;23.370;2023-03-04T17:28:41;94106.06;;;7.81;100.00
5879;BME280;2965;42.640;23.370;2023-03-04T17:31:15;94109.38;;;7.75;100.00
5879;BME280;2965;42.640;23.370;2023-03-04T17:33:41;94109.09;;;7.70;100.00
5879;BME280;2965;42.640;23.370;2023-03-04T17:36:10;94102.97;;;7.63;100.00
5879;BME280;2965;42.640;23.370;2023-03-04T17:38:36;94107.72;;;7.59;100.00
5879;BME280;2965;42.640;23.370;2023-03-04T17:41:03;94102.31;;;7.61;100.00
5879;BME280;2965;42.640;23.370;2023-03-04T17:43:28;94104.31;;;7.59;100.00
5879;BME280;2965;42.640;23.370;2023-03-04T17:46:04;94107.72;;;7.59;100.00
5879;BME280;2965;42.640;23.370;2023-03-04T17:48:31;94110.59;;;7.42;100.00
5879;BME280;2965;42.640;23.370;2023-03-04T17:50:57;94104.97;;;7.30;100.00
5879;BME280;2965;42.640;23.370;2023-03-04T17:53:22;94099.69;;;7.23;100.00
5879;BME280;2965;42.640;23.370;2023-03-04T17:55:52;94103.41;;;7.21;100.00
5879;BME280;2965;42.640;23.370;2023-03-04T17:58:17;94101.28;;;7.24;100.00
5879;BME280;2965;42.640;23.370;2023-03-04T18:00:43;94091.97;;;7.30;100.00
5879;BME280;2965;42.640;23.370;2023-03-04T18:03:13;94096.03;;;7.32;100.00
5879;BME280;2965;42.640;23.370;2023-03-04T18:05:39;94093.09;;;7.36;100.00
5879;BME280;2965;42.640;23.370;2023-03-04T18:08:05;94103.22;;;7.30;100.00
5879;BME280;2965;42.640;23.370;2023-03-04T18:10:31;94099.78;;;7.30;100.00
5879;BME280;2965;42.640;23.370;2023-03-04T18:12:56;94097.69;;;7.25;100.00
5879;BME280;2965;42.640;23.370;2023-03-04T18:15:22;94097.66;;;7.33;100.00
5879;BME280;2965;42.640;23.370;2023-03-04T18:17:47;94095.69;;;7.36;100.00
5879;BME280;2965;42.640;23.370;2023-03-04T18:20:13;94092.09;;;7.37;100.00
5879;BME280;2965;42.640;23.370;2023-03-04T18:22:39;94100.91;;;7.36;100.00
5879;BME280;2965;42.640;23.370;2023-03-04T18:25:05;94099.41;;;7.41;100.00
5879;BME280;2965;42.640;23.370;2023-03-04T18:27:30;94093.03;;;7.44;100.00
5879;BME280;2965;42.640;23.370;2023-03-04T18:29:56;94096.28;;;7.46;100.00
5879;BME280;2965;42.640;23.370;2023-03-04T18:32:22;94096.28;;;7.46;100.00
5879;BME280;2965;42.640;23.370;2023-03-04T18:34:48;94093.94;;;7.51;100.00
5879;BME280;2965;42.640;23.370;2023-03-04T18:37:13;94097.19;;;7.53;100.00
5879;BME280;2965;42.640;23.370;2023-03-04T18:39:39;94090.34;;;7.52;100.00
5879;BME280;2965;42.640;23.370;2023-03-04T18:42:04;94094.88;;;7.58;100.00
5879;BME280;2965;42.640;23.370;2023-03-04T18:44:33;94092.34;;;7.50;100.00
5879;BME280;2965;42.640;23.370;2023-03-04T18:46:58;94091.06;;;7.46;100.00
5879;BME280;2965;42.640;23.370;2023-03-04T18:49:24;94087.47;;;7.47;100.00
5879;BME280;2965;42.640;23.370;2023-03-04T18:51:50;94097.88;;;7.47;100.00
5879;BME280;2965;42.640;23.370;2023-03-04T18:54:15;94091.88;;;7.46;100.00
5879;BME280;2965;42.640;23.370;2023-03-04T18:56:44;94093.03;;;7.44;100.00
5879;BME280;2965;42.640;23.370;2023-03-04T18:59:24;94095.53;;;7.37;100.00
5879;BME280;2965;42.640;23.370;2023-03-04T19:01:52;94094.75;;;7.28;100.00
5879;BME280;2965;42.640;23.370;2023-03-04T19:04:20;94091.63;;;7.10;100.00
5879;BME280;2965;42.640;23.370;2023-03-04T19:06:47;94097.53;;;7.04;100.00
5879;BME280;2965;42.640;23.370;2023-03-04T19:09:13;94094.97;;;6.96;100.00
5879;BME280;2965;42.640;23.370;2023-03-04T19:11:38;94093.00;;;6.98;100.00
5879;BME280;2965;42.640;23.370;2023-03-04T19:14:04;94090.34;;;7.06;100.00
5879;BME280;2965;42.640;23.370;2023-03-04T19:16:30;94085.63;;;7.10;100.00
5879;BME280;2965;42.640;23.370;2023-03-04T19:18:55;94081.56;;;7.07;100.00
5879;BME280;2965;42.640;23.370;2023-03-04T19:21:21;94082.38;;;7.07;100.00
5879;BME280;2965;42.640;23.370;2023-03-04T19:23:46;94077.63;;;7.11;100.00
5879;BME280;2965;42.640;23.370;2023-03-04T19:26:11;94092.56;;;7.17;100.00
5879;BME280;2965;42.640;23.370;2023-03-04T19:28:38;94086.91;;;7.14;100.00
5879;BME280;2965;42.640;23.370;2023-03-04T19:31:05;94094.53;;;7.15;100.00
5879;BME280;2965;42.640;23.370;2023-03-04T19:33:34;94088.38;;;7.08;100.00
5879;BME280;2965;42.640;23.370;2023-03-04T19:36:00;94088.50;;;6.92;100.00
5879;BME280;2965;42.640;23.370;2023-03-04T19:38:26;94088.13;;;6.95;100.00
5879;BME280;2965;42.640;23.370;2023-03-04T19:40:52;94086.81;;;6.99;100.00
5879;BME280;2965;42.640;23.370;2023-03-04T19:43:18;94086.75;;;7.07;100.00
5879;BME280;2965;42.640;23.370;2023-03-04T19:45:51;94092.34;;;7.04;100.00
5879;BME280;2965;42.640;23.370;2023-03-04T19:48:16;94096.69;;;7.03;100.00
5879;BME280;2965;42.640;23.370;2023-03-04T19:50:42;94095.22;;;7.09;100.00
5879;BME280;2965;42.640;23.370;2023-03-04T19:53:07;94090.03;;;7.09;100.00
5879;BME280;2965;42.640;23.370;2023-03-04T19:55:36;94091.34;;;7.05;100.00
5879;BME280;2965;42.640;23.370;2023-03-04T19:58:01;94096.50;;;7.13;100.00
5879;BME280;2965;42.640;23.370;2023-03-04T20:00:27;94087.38;;;7.17;100.00
5879;BME280;2965;42.640;23.370;2023-03-04T20:02:54;94095.47;;;7.22;100.00
5879;BME280;2965;42.640;23.370;2023-03-04T20:05:19;94092.34;;;7.27;100.00
5879;BME280;2965;42.640;23.370;2023-03-04T20:07:45;94098.03;;;7.30;100.00